sensor_id;sensor_type;location;lat;lon;timestamp;temperature;humidity
22950;DHT22;11641;51.018;4.474;2022-12-18T00:01:57;-3.10;99.90
22950;DHT22;11641;51.018;4.474;2022-12-18T00:04:25;-3.10;99.90
22950;DHT22;11641;51.018;4.474;2022-12-18T00:06:53;-3.10;99.90
22950;DHT22;11641;51.018;4.474;2022-12-18T00:09:20;-3.10;99.90
22950;DHT22;11641;51.018;4.474;2022-12-18T00:11:45;-3.10;99.90
22950;DHT22;11641;51.018;4.474;2022-12-18T00:14:12;-3.20;99.90
22950;DHT22;11641;51.018;4.474;2022-12-18T00:16:38;-3.10;99.90
22950;DHT22;11641;51.018;4.474;2022-12-18T00:19:04;-3.20;99.90
22950;DHT22;11641;51.018;4.474;2022-12-18T00:21:31;-3.20;99.90
22950;DHT22;11641;51.018;4.474;2022-12-18T00:23:58;-3.20;99.90
22950;DHT22;11641;51.018;4.474;2022-12-18T00:26:29;-3.20;99.90
22950;DHT22;11641;51.018;4.474;2022-12-18T00:29:00;-3.20;99.90
22950;DHT22;11641;51.018;4.474;2022-12-18T00:31:27;-3.20;99.90
22950;DHT22;11641;51.018;4.474;2022-12-18T00:33:57;-3.30;99.90
22950;DHT22;11641;51.018;4.474;2022-12-18T00:36:25;-3.30;99.90
22950;DHT22;11641;51.018;4.474;2022-12-18T00:38:55;-3.30;99.90
22950;DHT22;11641;51.018;4.474;2022-12-18T00:41:21;-3.40;99.90
22950;DHT22;11641;51.018;4.474;2022-12-18T00:44:07;-3.40;99.90
22950;DHT22;11641;51.018;4.474;2022-12-18T00:46:33;-3.40;99.90
22950;DHT22;11641;51.018;4.474;2022-12-18T00:49:01;-3.30;99.90
22950;DHT22;11641;51.018;4.474;2022-12-18T00:51:27;-3.30;99.90
22950;DHT22;11641;51.018;4.474;2022-12-18T00:53:55;-3.30;99.90
22950;DHT22;11641;51.018;4.474;2022-12-18T00:56:22;-3.30;99.90
22950;DHT22;11641;51.018;4.474;2022-12-18T00:58:47;-3.40;99.90
22950;DHT22;11641;51.018;4.474;2022-12-18T01:01:13;-3.30;99.90
22950;DHT22;11641;51.018;4.474;2022-12-18T01:03:39;-3.30;99.90
22950;DHT22;11641;51.018;4.474;2022-12-18T01:06:07;-3.40;99.90
22950;DHT22;11641;51.018;4.474;2022-12-18T01:08:32;-3.40;99.90
22950;DHT22;11641;51.018;4.474;2022-12-18T01:10:58;-3.50;99.90
22950;DHT22;11641;51.018;4.474;2022-12-18T01:13:28;-3.50;99.90
22950;DHT22;11641;51.018;4.474;2022-12-18T01:15:54;-3.60;99.90
22950;DHT22;11641;51.018;4.474;2022-12-18T01:18:19;-3.60;99.90
22950;DHT22;11641;51.018;4.474;2022-12-18T01:20:45;-3.60;99.90
22950;DHT22;11641;51.018;4.474;2022-12-18T01:23:13;-3.70;99.90
22950;DHT22;11641;51.018;4.474;2022-12-18T01:25:38;-3.70;99.90
22950;DHT22;11641;51.018;4.474;2022-12-18T01:28:04;-3.70;99.90
22950;DHT22;11641;51.018;4.474;2022-12-18T01:30:30;-3.70;99.90
22950;DHT22;11641;51.018;4.474;2022-12-18T01:32:58;-3.70;99.90
22950;DHT22;11641;51.018;4.474;2022-12-18T01:35:26;-3.60;99.90
22950;DHT22;11641;51.018;4.474;2022-12-18T01:37:54;-3.60;99.90
22950;DHT22;11641;51.018;4.474;2022-12-18T01:40:20;-3.60;99.90
22950;DHT22;11641;51.018;4.474;2022-12-18T01:42:52;-3.60;99.90
22950;DHT22;11641;51.018;4.474;2022-12-18T01:47:47;-3.70;99.90
22950;DHT22;11641;51.018;4.474;2022-12-18T01:50:17;-3.70;99.90
22950;DHT22;11641;51.018;4.474;2022-12-18T01:52:46;-3.80;99.90
22950;DHT22;11641;51.018;4.474;2022-12-18T01:55:17;-3.80;99.90
22950;DHT22;11641;51.018;4.474;2022-12-18T01:57:45;-3.80;99.90
22950;DHT22;11641;51.018;4.474;2022-12-18T02:00:15;-3.80;99.90
22950;DHT22;11641;51.018;4.474;2022-12-18T02:02:43;-3.70;99.90
22950;DHT22;11641;51.018;4.474;2022-12-18T02:05:10;-3.80;99.90
22950;DHT22;11641;51.018;4.474;2022-12-18T02:10:29;-3.70;99.90
22950;DHT22;11641;51.018;4.474;2022-12-18T02:15:57;-3.70;99.90
22950;DHT22;11641;51.018;4.474;2022-12-18T02:18:28;-3.70;99.90
22950;DHT22;11641;51.018;4.474;2022-12-18T02:24:05;-3.80;99.90
22950;DHT22;11641;51.018;4.474;2022-12-18T02:26:53;-3.80;99.90
22950;DHT22;11641;51.018;4.474;2022-12-18T02:29:44;-3.80;99.90
22950;DHT22;11641;51.018;4.474;2022-12-18T02:32:26;-3.80;99.90
22950;DHT22;11641;51.018;4.474;2022-12-18T02:34:55;-3.90;99.90
22950;DHT22;11641;51.018;4.474;2022-12-18T02:37:23;-3.90;99.90
22950;DHT22;11641;51.018;4.474;2022-12-18T02:39:52;-4.00;99.90
22950;DHT22;11641;51.018;4.474;2022-12-18T02:42:20;-4.00;99.90
22950;DHT22;11641;51.018;4.474;2022-12-18T02:44:50;-3.90;99.90
22950;DHT22;11641;51.018;4.474;2022-12-18T02:47:29;-3.90;99.90
22950;DHT22;11641;51.018;4.474;2022-12-18T02:58:26;-4.10;99.90
22950;DHT22;11641;51.018;4.474;2022-12-18T03:03:58;-4.10;99.90
22950;DHT22;11641;51.018;4.474;2022-12-18T03:06:40;-4.10;99.90
22950;DHT22;11641;51.018;4.474;2022-12-18T03:09:18;-4.20;99.90
22950;DHT22;11641;51.018;4.474;2022-12-18T03:11:49;-4.20;99.90
22950;DHT22;11641;51.018;4.474;2022-12-18T03:14:40;-4.20;99.90
22950;DHT22;11641;51.018;4.474;2022-12-18T03:17:10;-4.30;99.90
22950;DHT22;11641;51.018;4.474;2022-12-18T03:19:40;-4.20;99.90
22950;DHT22;11641;51.018;4.474;2022-12-18T03:22:08;-4.20;99.90
22950;DHT22;11641;51.018;4.474;2022-12-18T03:24:35;-4.10;99.90
22950;DHT22;11641;51.018;4.474;2022-12-18T03:27:07;-4.10;99.90
22950;DHT22;11641;51.018;4.474;2022-12-18T03:32:05;-4.10;99.90
22950;DHT22;11641;51.018;4.474;2022-12-18T03:34:36;-4.10;99.90
22950;DHT22;11641;51.018;4.474;2022-12-18T03:37:04;-4.10;99.90
22950;DHT22;11641;51.018;4.474;2022-12-18T03:39:30;-4.20;99.90
22950;DHT22;11641;51.018;4.474;2022-12-18T03:42:18;-4.30;99.90
22950;DHT22;11641;51.018;4.474;2022-12-18T03:45:27;-4.20;99.90
22950;DHT22;11641;51.018;4.474;2022-12-18T03:48:17;-4.30;99.90
22950;DHT22;11641;51.018;4.474;2022-12-18T03:55:45;-4.50;99.90
22950;DHT22;11641;51.018;4.474;2022-12-18T03:58:16;-4.50;99.90
22950;DHT22;11641;51.018;4.474;2022-12-18T04:00:44;-4.50;99.90
22950;DHT22;11641;51.018;4.474;2022-12-18T04:03:11;-4.60;99.90
22950;DHT22;11641;51.018;4.474;2022-12-18T04:05:37;-4.50;99.90
22950;DHT22;11641;51.018;4.474;2022-12-18T04:08:04;-4.50;99.90
22950;DHT22;11641;51.018;4.474;2022-12-18T04:10:32;-4.40;99.90
22950;DHT22;11641;51.018;4.474;2022-12-18T04:13:02;-4.40;99.90
22950;DHT22;11641;51.018;4.474;2022-12-18T04:15:33;-4.40;99.90
22950;DHT22;11641;51.018;4.474;2022-12-18T04:18:00;-4.40;99.90
22950;DHT22;11641;51.018;4.474;2022-12-18T04:20:25;-4.40;99.90
22950;DHT22;11641;51.018;4.474;2022-12-18T04:22:53;-4.30;99.90
22950;DHT22;11641;51.018;4.474;2022-12-18T04:25:19;-4.20;99.90
22950;DHT22;11641;51.018;4.474;2022-12-18T04:27:44;-4.20;99.90
22950;DHT22;11641;51.018;4.474;2022-12-18T04:30:10;-4.20;99.90
22950;DHT22;11641;51.018;4.474;2022-12-18T04:32:36;-4.30;99.90
22950;DHT22;11641;51.018;4.474;2022-12-18T04:35:02;-4.30;99.90
22950;DHT22;11641;51.018;4.474;2022-12-18T04:37:29;-4.30;99.90
22950;DHT22;11641;51.018;4.474;2022-12-18T04:39:55;-4.40;99.90
22950;DHT22;11641;51.018;4.474;2022-12-18T04:42:21;-4.30;99.90
22950;DHT22;11641;51.018;4.474;2022-12-18T04:44:46;-4.30;99.90
22950;DHT22;11641;51.018;4.474;2022-12-18T04:47:12;-4.40;99.90
22950;DHT22;11641;51.018;4.474;2022-12-18T04:49:37;-4.40;99.90
22950;DHT22;11641;51.018;4.474;2022-12-18T04:52:03;-4.50;99.90
22950;DHT22;11641;51.018;4.474;2022-12-18T04:54:29;-4.50;99.90
22950;DHT22;11641;51.018;4.474;2022-12-18T04:56:54;-4.50;99.90
22950;DHT22;11641;51.018;4.474;2022-12-18T04:59:20;-4.50;99.90
22950;DHT22;11641;51.018;4.474;2022-12-18T05:01:46;-4.50;99.90
22950;DHT22;11641;51.018;4.474;2022-12-18T05:04:13;-4.50;99.90
22950;DHT22;11641;51.018;4.474;2022-12-18T05:06:39;-4.60;99.90
22950;DHT22;11641;51.018;4.474;2022-12-18T05:09:05;-4.60;99.90
22950;DHT22;11641;51.018;4.474;2022-12-18T05:11:30;-4.60;99.90
22950;DHT22;11641;51.018;4.474;2022-12-18T05:13:56;-4.70;99.90
22950;DHT22;11641;51.018;4.474;2022-12-18T05:16:22;-4.70;99.90
22950;DHT22;11641;51.018;4.474;2022-12-18T05:18:47;-4.60;99.90
22950;DHT22;11641;51.018;4.474;2022-12-18T05:21:13;-4.60;99.90
22950;DHT22;11641;51.018;4.474;2022-12-18T05:23:43;-4.60;99.90
22950;DHT22;11641;51.018;4.474;2022-12-18T05:26:15;-4.60;99.90
22950;DHT22;11641;51.018;4.474;2022-12-18T05:28:42;-4.70;99.90
22950;DHT22;11641;51.018;4.474;2022-12-18T05:31:07;-4.70;99.90
22950;DHT22;11641;51.018;4.474;2022-12-18T05:33:34;-4.70;99.90
22950;DHT22;11641;51.018;4.474;2022-12-18T05:36:05;-4.60;99.90
22950;DHT22;11641;51.018;4.474;2022-12-18T05:38:34;-4.60;99.90
22950;DHT22;11641;51.018;4.474;2022-12-18T05:41:00;-4.60;99.90
22950;DHT22;11641;51.018;4.474;2022-12-18T05:43:26;-4.60;99.90
22950;DHT22;11641;51.018;4.474;2022-12-18T05:45:58;-4.60;99.90
22950;DHT22;11641;51.018;4.474;2022-12-18T05:48:28;-4.50;99.90
22950;DHT22;11641;51.018;4.474;2022-12-18T05:50:54;-4.50;99.90
22950;DHT22;11641;51.018;4.474;2022-12-18T05:53:20;-4.40;99.90
22950;DHT22;11641;51.018;4.474;2022-12-18T05:55:47;-4.40;99.90
22950;DHT22;11641;51.018;4.474;2022-12-18T05:58:13;-4.40;99.90
22950;DHT22;11641;51.018;4.474;2022-12-18T06:00:45;-4.40;99.90
22950;DHT22;11641;51.018;4.474;2022-12-18T06:03:12;-4.40;99.90
22950;DHT22;11641;51.018;4.474;2022-12-18T06:05:41;-4.30;99.90
22950;DHT22;11641;51.018;4.474;2022-12-18T06:08:07;-4.30;99.90
22950;DHT22;11641;51.018;4.474;2022-12-18T06:10:33;-4.30;99.90
22950;DHT22;11641;51.018;4.474;2022-12-18T06:13:01;-4.20;99.90
22950;DHT22;11641;51.018;4.474;2022-12-18T06:15:26;-4.20;99.90
22950;DHT22;11641;51.018;4.474;2022-12-18T06:17:52;-4.20;99.90
22950;DHT22;11641;51.018;4.474;2022-12-18T06:20:18;-4.20;99.90
22950;DHT22;11641;51.018;4.474;2022-12-18T06:22:44;-4.30;99.90
22950;DHT22;11641;51.018;4.474;2022-12-18T06:25:12;-4.30;99.90
22950;DHT22;11641;51.018;4.474;2022-12-18T06:27:37;-4.40;99.90
22950;DHT22;11641;51.018;4.474;2022-12-18T06:30:06;-4.40;99.90
22950;DHT22;11641;51.018;4.474;2022-12-18T06:32:32;-4.40;99.90
22950;DHT22;11641;51.018;4.474;2022-12-18T06:34:58;-4.40;99.90
22950;DHT22;11641;51.018;4.474;2022-12-18T06:37:23;-4.30;99.90
22950;DHT22;11641;51.018;4.474;2022-12-18T06:39:54;-4.20;99.90
22950;DHT22;11641;51.018;4.474;2022-12-18T06:42:26;-4.30;99.90
22950;DHT22;11641;51.018;4.474;2022-12-18T06:44:51;-4.30;99.90
22950;DHT22;11641;51.018;4.474;2022-12-18T06:47:18;-4.40;99.90
22950;DHT22;11641;51.018;4.474;2022-12-18T06:49:46;-4.40;99.90
22950;DHT22;11641;51.018;4.474;2022-12-18T06:52:11;-4.40;99.90
22950;DHT22;11641;51.018;4.474;2022-12-18T06:54:37;-4.40;99.90
22950;DHT22;11641;51.018;4.474;2022-12-18T06:57:02;-4.40;99.90
22950;DHT22;11641;51.018;4.474;2022-12-18T06:59:28;-4.50;99.90
22950;DHT22;11641;51.018;4.474;2022-12-18T07:01:56;-4.50;99.90
22950;DHT22;11641;51.018;4.474;2022-12-18T07:04:22;-4.50;99.90
22950;DHT22;11641;51.018;4.474;2022-12-18T07:06:47;-4.50;99.90
22950;DHT22;11641;51.018;4.474;2022-12-18T07:09:13;-4.50;99.90
22950;DHT22;11641;51.018;4.474;2022-12-18T07:11:38;-4.50;99.90
22950;DHT22;11641;51.018;4.474;2022-12-18T07:14:04;-4.50;99.90
22950;DHT22;11641;51.018;4.474;2022-12-18T07:16:30;-4.50;99.90
22950;DHT22;11641;51.018;4.474;2022-12-18T07:18:58;-4.40;99.90
22950;DHT22;11641;51.018;4.474;2022-12-18T07:21:24;-4.10;99.90
22950;DHT22;11641;51.018;4.474;2022-12-18T07:23:50;-4.20;99.90
22950;DHT22;11641;51.018;4.474;2022-12-18T07:26:19;-4.30;99.90
22950;DHT22;11641;51.018;4.474;2022-12-18T07:28:45;-4.40;99.90
22950;DHT22;11641;51.018;4.474;2022-12-18T07:31:16;-4.40;99.90
22950;DHT22;11641;51.018;4.474;2022-12-18T07:33:43;-4.30;99.90
22950;DHT22;11641;51.018;4.474;2022-12-18T07:36:11;-4.30;99.90
22950;DHT22;11641;51.018;4.474;2022-12-18T07:38:37;-4.40;99.90
22950;DHT22;11641;51.018;4.474;2022-12-18T07:41:09;-4.40;99.90
22950;DHT22;11641;51.018;4.474;2022-12-18T07:43:35;-4.50;99.90
22950;DHT22;11641;51.018;4.474;2022-12-18T07:46:01;-4.50;99.90
22950;DHT22;11641;51.018;4.474;2022-12-18T07:48:28;-4.50;99.90
22950;DHT22;11641;51.018;4.474;2022-12-18T07:50:55;-4.40;99.90
22950;DHT22;11641;51.018;4.474;2022-12-18T07:53:23;-4.40;99.90
22950;DHT22;11641;51.018;4.474;2022-12-18T07:55:48;-4.40;99.90
22950;DHT22;11641;51.018;4.474;2022-12-18T07:58:16;-4.30;99.90
22950;DHT22;11641;51.018;4.474;2022-12-18T08:00:42;-4.10;99.90
22950;DHT22;11641;51.018;4.474;2022-12-18T08:03:07;-4.20;99.90
22950;DHT22;11641;51.018;4.474;2022-12-18T08:05:33;-4.20;99.90
22950;DHT22;11641;51.018;4.474;2022-12-18T08:08:00;-4.20;99.90
22950;DHT22;11641;51.018;4.474;2022-12-18T08:10:26;-4.10;99.90
22950;DHT22;11641;51.018;4.474;2022-12-18T08:12:52;-4.20;99.90
22950;DHT22;11641;51.018;4.474;2022-12-18T08:15:20;-4.20;99.90
22950;DHT22;11641;51.018;4.474;2022-12-18T08:17:45;-4.20;99.90
22950;DHT22;11641;51.018;4.474;2022-12-18T08:20:13;-4.10;99.90
22950;DHT22;11641;51.018;4.474;2022-12-18T08:22:41;-4.00;99.90
22950;DHT22;11641;51.018;4.474;2022-12-18T08:25:07;-3.80;99.90
22950;DHT22;11641;51.018;4.474;2022-12-18T08:27:33;-3.80;99.90
22950;DHT22;11641;51.018;4.474;2022-12-18T08:29:59;-3.50;99.90
22950;DHT22;11641;51.018;4.474;2022-12-18T08:32:25;-3.30;99.90
22950;DHT22;11641;51.018;4.474;2022-12-18T08:34:54;-3.30;99.90
22950;DHT22;11641;51.018;4.474;2022-12-18T08:37:19;-3.30;99.90
22950;DHT22;11641;51.018;4.474;2022-12-18T08:39:47;-3.30;99.90
22950;DHT22;11641;51.018;4.474;2022-12-18T08:42:13;-3.20;99.90
22950;DHT22;11641;51.018;4.474;2022-12-18T08:44:57;-2.90;99.90
22950;DHT22;11641;51.018;4.474;2022-12-18T08:47:22;-2.80;99.90
22950;DHT22;11641;51.018;4.474;2022-12-18T08:49:48;-2.60;99.90
22950;DHT22;11641;51.018;4.474;2022-12-18T08:52:14;-2.50;99.90
22950;DHT22;11641;51.018;4.474;2022-12-18T08:54:39;-2.60;99.90
22950;DHT22;11641;51.018;4.474;2022-12-18T08:57:05;-2.50;99.90
22950;DHT22;11641;51.018;4.474;2022-12-18T08:59:30;-2.30;99.90
22950;DHT22;11641;51.018;4.474;2022-12-18T09:01:56;-2.30;99.90
22950;DHT22;11641;51.018;4.474;2022-12-18T09:04:22;-2.20;99.90
22950;DHT22;11641;51.018;4.474;2022-12-18T09:06:48;-2.20;99.90
22950;DHT22;11641;51.018;4.474;2022-12-18T09:09:13;-1.80;99.90
22950;DHT22;11641;51.018;4.474;2022-12-18T09:11:39;-1.60;99.90
22950;DHT22;11641;51.018;4.474;2022-12-18T09:14:05;-1.30;99.90
22950;DHT22;11641;51.018;4.474;2022-12-18T09:16:31;-1.20;99.90
22950;DHT22;11641;51.018;4.474;2022-12-18T09:18:58;-1.30;99.90
22950;DHT22;11641;51.018;4.474;2022-12-18T09:21:30;-1.20;99.90
22950;DHT22;11641;51.018;4.474;2022-12-18T09:23:56;-1.10;99.90
22950;DHT22;11641;51.018;4.474;2022-12-18T09:26:22;-0.80;99.90
22950;DHT22;11641;51.018;4.474;2022-12-18T09:28:50;-0.80;99.90
22950;DHT22;11641;51.018;4.474;2022-12-18T09:31:19;-0.70;99.90
22950;DHT22;11641;51.018;4.474;2022-12-18T09:33:45;-0.70;99.90
22950;DHT22;11641;51.018;4.474;2022-12-18T09:36:13;-0.70;99.90
22950;DHT22;11641;51.018;4.474;2022-12-18T09:38:39;-0.80;99.90
22950;DHT22;11641;51.018;4.474;2022-12-18T09:43:54;-0.90;99.90
22950;DHT22;11641;51.018;4.474;2022-12-18T09:46:52;-0.70;99.90
22950;DHT22;11641;51.018;4.474;2022-12-18T09:49:22;-0.60;99.90
22950;DHT22;11641;51.018;4.474;2022-12-18T09:54:38;-0.60;99.90
22950;DHT22;11641;51.018;4.474;2022-12-18T09:57:05;-0.50;99.90
22950;DHT22;11641;51.018;4.474;2022-12-18T09:59:39;-0.60;99.90
22950;DHT22;11641;51.018;4.474;2022-12-18T10:02:15;-0.50;99.90
22950;DHT22;11641;51.018;4.474;2022-12-18T10:04:44;-0.30;99.90
22950;DHT22;11641;51.018;4.474;2022-12-18T10:07:32;-0.20;99.90
22950;DHT22;11641;51.018;4.474;2022-12-18T10:10:11;0.00;99.90
22950;DHT22;11641;51.018;4.474;2022-12-18T10:12:53;0.10;99.90
22950;DHT22;11641;51.018;4.474;2022-12-18T10:15:30;0.20;99.90
22950;DHT22;11641;51.018;4.474;2022-12-18T10:17:59;0.20;99.90
22950;DHT22;11641;51.018;4.474;2022-12-18T10:20:34;0.30;99.90
22950;DHT22;11641;51.018;4.474;2022-12-18T10:23:04;0.40;99.90
22950;DHT22;11641;51.018;4.474;2022-12-18T10:28:21;0.30;99.90
22950;DHT22;11641;51.018;4.474;2022-12-18T10:30:48;0.20;99.90
22950;DHT22;11641;51.018;4.474;2022-12-18T10:33:21;0.30;99.90
22950;DHT22;11641;51.018;4.474;2022-12-18T10:35:49;0.40;99.90
22950;DHT22;11641;51.018;4.474;2022-12-18T10:48:39;0.40;99.90
22950;DHT22;11641;51.018;4.474;2022-12-18T10:51:06;0.50;99.90
22950;DHT22;11641;51.018;4.474;2022-12-18T10:53:34;0.70;99.90
22950;DHT22;11641;51.018;4.474;2022-12-18T10:56:03;0.80;99.90
22950;DHT22;11641;51.018;4.474;2022-12-18T10:58:34;0.80;99.90
22950;DHT22;11641;51.018;4.474;2022-12-18T11:06:16;1.30;99.90
22950;DHT22;11641;51.018;4.474;2022-12-18T11:08:44;1.50;99.90
22950;DHT22;11641;51.018;4.474;2022-12-18T11:11:24;1.60;99.90
22950;DHT22;11641;51.018;4.474;2022-12-18T11:14:05;1.70;99.90
22950;DHT22;11641;51.018;4.474;2022-12-18T11:16:37;1.70;99.90
22950;DHT22;11641;51.018;4.474;2022-12-18T11:21:46;1.60;99.90
22950;DHT22;11641;51.018;4.474;2022-12-18T11:24:38;1.70;99.90
22950;DHT22;11641;51.018;4.474;2022-12-18T11:27:05;1.80;99.90
22950;DHT22;11641;51.018;4.474;2022-12-18T11:29:39;1.80;99.90
22950;DHT22;11641;51.018;4.474;2022-12-18T11:34:45;1.80;99.90
22950;DHT22;11641;51.018;4.474;2022-12-18T11:37:13;1.80;99.90
22950;DHT22;11641;51.018;4.474;2022-12-18T11:39:50;1.80;99.90
22950;DHT22;11641;51.018;4.474;2022-12-18T11:42:46;1.80;99.90
22950;DHT22;11641;51.018;4.474;2022-12-18T11:50:17;1.90;99.90
22950;DHT22;11641;51.018;4.474;2022-12-18T11:52:43;1.90;99.90
22950;DHT22;11641;51.018;4.474;2022-12-18T12:00:47;2.30;99.90
22950;DHT22;11641;51.018;4.474;2022-12-18T12:03:47;2.20;99.90
22950;DHT22;11641;51.018;4.474;2022-12-18T12:06:37;2.20;99.90
22950;DHT22;11641;51.018;4.474;2022-12-18T12:23:39;2.40;99.90
22950;DHT22;11641;51.018;4.474;2022-12-18T12:31:59;2.50;99.90
22950;DHT22;11641;51.018;4.474;2022-12-18T12:40:01;2.80;99.90
22950;DHT22;11641;51.018;4.474;2022-12-18T12:42:38;2.90;99.90
22950;DHT22;11641;51.018;4.474;2022-12-18T12:45:28;2.90;99.90
22950;DHT22;11641;51.018;4.474;2022-12-18T12:48:00;2.80;99.90
22950;DHT22;11641;51.018;4.474;2022-12-18T12:50:27;2.60;99.90
22950;DHT22;11641;51.018;4.474;2022-12-18T12:52:58;2.80;99.90
22950;DHT22;11641;51.018;4.474;2022-12-18T12:55:28;2.90;99.90
22950;DHT22;11641;51.018;4.474;2022-12-18T13:00:36;2.90;99.90
22950;DHT22;11641;51.018;4.474;2022-12-18T13:06:00;3.10;99.90
22950;DHT22;11641;51.018;4.474;2022-12-18T13:08:34;3.20;99.90
22950;DHT22;11641;51.018;4.474;2022-12-18T13:14:26;3.40;99.90
22950;DHT22;11641;51.018;4.474;2022-12-18T13:20:02;3.70;99.90
22950;DHT22;11641;51.018;4.474;2022-12-18T13:22:35;3.70;99.90
22950;DHT22;11641;51.018;4.474;2022-12-18T13:25:02;3.60;99.90
22950;DHT22;11641;51.018;4.474;2022-12-18T13:35:51;3.30;99.90
22950;DHT22;11641;51.018;4.474;2022-12-18T13:38:42;3.10;99.90
22950;DHT22;11641;51.018;4.474;2022-12-18T13:41:24;2.90;99.90
22950;DHT22;11641;51.018;4.474;2022-12-18T13:46:46;3.00;99.90
22950;DHT22;11641;51.018;4.474;2022-12-18T13:51:42;2.80;99.90
22950;DHT22;11641;51.018;4.474;2022-12-18T13:54:30;2.90;99.90
22950;DHT22;11641;51.018;4.474;2022-12-18T13:56:58;2.90;99.90
22950;DHT22;11641;51.018;4.474;2022-12-18T13:59:46;2.90;99.90
22950;DHT22;11641;51.018;4.474;2022-12-18T14:02:16;2.90;99.90
22950;DHT22;11641;51.018;4.474;2022-12-18T14:04:47;2.90;99.90
22950;DHT22;11641;51.018;4.474;2022-12-18T14:07:25;2.80;99.90
22950;DHT22;11641;51.018;4.474;2022-12-18T14:09:55;2.80;99.90
22950;DHT22;11641;51.018;4.474;2022-12-18T14:12:24;2.80;99.90
22950;DHT22;11641;51.018;4.474;2022-12-18T14:15:40;2.90;99.90
22950;DHT22;11641;51.018;4.474;2022-12-18T14:18:28;2.90;99.90
22950;DHT22;11641;51.018;4.474;2022-12-18T14:20:57;2.90;99.90
22950;DHT22;11641;51.018;4.474;2022-12-18T14:23:41;2.80;99.90
22950;DHT22;11641;51.018;4.474;2022-12-18T14:26:28;2.80;99.90
22950;DHT22;11641;51.018;4.474;2022-12-18T14:29:17;2.80;99.90
22950;DHT22;11641;51.018;4.474;2022-12-18T14:31:45;2.80;99.90
22950;DHT22;11641;51.018;4.474;2022-12-18T14:34:28;2.70;99.90
22950;DHT22;11641;51.018;4.474;2022-12-18T14:36:54;2.80;99.90
22950;DHT22;11641;51.018;4.474;2022-12-18T14:39:21;2.80;99.90
22950;DHT22;11641;51.018;4.474;2022-12-18T14:41:49;2.80;99.90
22950;DHT22;11641;51.018;4.474;2022-12-18T14:44:15;2.60;99.90
22950;DHT22;11641;51.018;4.474;2022-12-18T14:46:46;2.60;99.90
22950;DHT22;11641;51.018;4.474;2022-12-18T14:49:29;2.60;99.90
22950;DHT22;11641;51.018;4.474;2022-12-18T14:51:58;2.60;99.90
22950;DHT22;11641;51.018;4.474;2022-12-18T14:54:25;2.50;99.90
22950;DHT22;11641;51.018;4.474;2022-12-18T14:57:06;2.40;99.90
22950;DHT22;11641;51.018;4.474;2022-12-18T14:59:40;2.20;99.90
22950;DHT22;11641;51.018;4.474;2022-12-18T15:02:25;2.50;99.90
22950;DHT22;11641;51.018;4.474;2022-12-18T15:05:14;2.30;99.90
22950;DHT22;11641;51.018;4.474;2022-12-18T15:07:46;2.40;99.90
22950;DHT22;11641;51.018;4.474;2022-12-18T15:13:07;2.50;99.90
22950;DHT22;11641;51.018;4.474;2022-12-18T15:20:54;2.20;99.90
22950;DHT22;11641;51.018;4.474;2022-12-18T15:26:27;2.20;99.90
22950;DHT22;11641;51.018;4.474;2022-12-18T15:29:02;2.00;99.90
22950;DHT22;11641;51.018;4.474;2022-12-18T15:31:33;2.00;99.90
22950;DHT22;11641;51.018;4.474;2022-12-18T15:36:35;2.10;99.90
22950;DHT22;11641;51.018;4.474;2022-12-18T15:39:03;2.10;99.90
22950;DHT22;11641;51.018;4.474;2022-12-18T15:41:34;2.10;99.90
22950;DHT22;11641;51.018;4.474;2022-12-18T15:44:03;2.10;99.90
22950;DHT22;11641;51.018;4.474;2022-12-18T15:46:41;2.10;99.90
22950;DHT22;11641;51.018;4.474;2022-12-18T15:49:07;2.30;99.90
22950;DHT22;11641;51.018;4.474;2022-12-18T15:51:35;2.40;99.90
22950;DHT22;11641;51.018;4.474;2022-12-18T15:54:05;2.70;99.90
22950;DHT22;11641;51.018;4.474;2022-12-18T15:56:32;2.70;99.90
22950;DHT22;11641;51.018;4.474;2022-12-18T15:59:18;2.50;99.90
22950;DHT22;11641;51.018;4.474;2022-12-18T16:01:46;2.50;99.90
22950;DHT22;11641;51.018;4.474;2022-12-18T16:04:15;2.40;99.90
22950;DHT22;11641;51.018;4.474;2022-12-18T16:06:41;2.50;99.90
22950;DHT22;11641;51.018;4.474;2022-12-18T16:09:07;2.30;99.90
22950;DHT22;11641;51.018;4.474;2022-12-18T16:11:34;2.30;99.90
22950;DHT22;11641;51.018;4.474;2022-12-18T16:16:31;2.30;99.90
22950;DHT22;11641;51.018;4.474;2022-12-18T16:18:56;2.40;99.90
22950;DHT22;11641;51.018;4.474;2022-12-18T16:21:22;2.20;99.90
22950;DHT22;11641;51.018;4.474;2022-12-18T16:23:47;2.10;99.90
22950;DHT22;11641;51.018;4.474;2022-12-18T16:26:13;2.10;99.90
22950;DHT22;11641;51.018;4.474;2022-12-18T16:28:39;2.30;99.90
22950;DHT22;11641;51.018;4.474;2022-12-18T16:31:04;2.30;99.90
22950;DHT22;11641;51.018;4.474;2022-12-18T16:33:30;2.30;99.90
22950;DHT22;11641;51.018;4.474;2022-12-18T16:35:58;2.30;99.90
22950;DHT22;11641;51.018;4.474;2022-12-18T16:38:26;2.20;99.90
22950;DHT22;11641;51.018;4.474;2022-12-18T16:40:51;2.10;99.90
22950;DHT22;11641;51.018;4.474;2022-12-18T16:43:35;2.10;99.90
22950;DHT22;11641;51.018;4.474;2022-12-18T16:46:01;2.20;99.90
22950;DHT22;11641;51.018;4.474;2022-12-18T16:48:26;2.30;99.90
22950;DHT22;11641;51.018;4.474;2022-12-18T16:51:03;2.20;99.90
22950;DHT22;11641;51.018;4.474;2022-12-18T16:53:31;2.10;99.90
22950;DHT22;11641;51.018;4.474;2022-12-18T16:56:00;2.20;99.90
22950;DHT22;11641;51.018;4.474;2022-12-18T16:58:25;2.10;99.90
22950;DHT22;11641;51.018;4.474;2022-12-18T17:00:51;2.20;99.90
22950;DHT22;11641;51.018;4.474;2022-12-18T17:03:16;2.30;99.90
22950;DHT22;11641;51.018;4.474;2022-12-18T17:05:42;2.50;99.90
22950;DHT22;11641;51.018;4.474;2022-12-18T17:08:08;2.50;99.90
22950;DHT22;11641;51.018;4.474;2022-12-18T17:10:36;2.40;99.90
22950;DHT22;11641;51.018;4.474;2022-12-18T17:13:02;2.50;99.90
22950;DHT22;11641;51.018;4.474;2022-12-18T17:15:28;2.50;99.90
22950;DHT22;11641;51.018;4.474;2022-12-18T17:17:53;2.50;99.90
22950;DHT22;11641;51.018;4.474;2022-12-18T17:20:19;2.40;99.90
22950;DHT22;11641;51.018;4.474;2022-12-18T17:22:47;2.60;99.90
22950;DHT22;11641;51.018;4.474;2022-12-18T17:25:12;2.50;99.90
22950;DHT22;11641;51.018;4.474;2022-12-18T17:27:38;2.60;99.90
22950;DHT22;11641;51.018;4.474;2022-12-18T17:30:05;2.60;99.90
22950;DHT22;11641;51.018;4.474;2022-12-18T17:32:30;2.70;99.90
22950;DHT22;11641;51.018;4.474;2022-12-18T17:34:56;2.70;99.90
22950;DHT22;11641;51.018;4.474;2022-12-18T17:37:22;2.80;99.90
22950;DHT22;11641;51.018;4.474;2022-12-18T17:39:49;2.70;99.90
22950;DHT22;11641;51.018;4.474;2022-12-18T17:42:18;2.70;99.90
22950;DHT22;11641;51.018;4.474;2022-12-18T17:44:44;2.90;99.90
22950;DHT22;11641;51.018;4.474;2022-12-18T17:47:10;2.90;99.90
22950;DHT22;11641;51.018;4.474;2022-12-18T17:49:37;2.80;99.90
22950;DHT22;11641;51.018;4.474;2022-12-18T17:52:06;2.80;99.90
22950;DHT22;11641;51.018;4.474;2022-12-18T17:54:31;2.90;99.90
22950;DHT22;11641;51.018;4.474;2022-12-18T17:56:57;2.90;99.90
22950;DHT22;11641;51.018;4.474;2022-12-18T17:59:25;3.10;99.90
22950;DHT22;11641;51.018;4.474;2022-12-18T18:01:53;3.10;99.90
22950;DHT22;11641;51.018;4.474;2022-12-18T18:04:21;2.90;99.90
22950;DHT22;11641;51.018;4.474;2022-12-18T18:06:51;2.80;99.90
22950;DHT22;11641;51.018;4.474;2022-12-18T18:09:19;2.80;99.90
22950;DHT22;11641;51.018;4.474;2022-12-18T18:11:44;2.60;99.90